Aviation meteorology

METAR


Last update: 08 Apr 2020 04:20:00
498
SAHU41 HASM 080430
METAR LHSM 080415Z AUTO 32003KT CAVOK M00/M05 Q1031

TAF


Last update: 08 Apr 2020 02:05:00
493
FCHU99 LHSM 080200
TAF LHSM 080200Z NIL